createdAt,value
2023-02-25T00:01:34.769Z,89
2023-02-25T00:05:00.023Z,89
2023-02-25T00:08:25.254Z,88
2023-02-25T00:11:50.521Z,88
2023-02-25T00:15:15.731Z,88
2023-02-25T00:18:40.956Z,87
2023-02-25T00:22:06.198Z,87
2023-02-25T00:25:31.470Z,86
2023-02-25T00:28:56.732Z,84
2023-02-25T00:32:22.153Z,83
2023-02-25T00:35:47.182Z,83
2023-02-25T00:39:12.485Z,84
2023-02-25T00:42:37.697Z,82
2023-02-25T00:46:03.039Z,82
2023-02-25T00:49:32.294Z,82
2023-02-25T00:52:53.461Z,82
2023-02-25T00:56:18.707Z,83
2023-02-25T00:59:43.956Z,82
2023-02-25T01:03:09.301Z,82
2023-02-25T01:06:34.482Z,82
2023-02-25T01:09:59.741Z,82
2023-02-25T01:13:24.952Z,82
2023-02-25T01:16:50.214Z,82
2023-02-25T01:20:15.482Z,82
2023-02-25T01:23:40.703Z,81
2023-02-25T01:27:05.943Z,81
2023-02-25T01:30:31.234Z,82
2023-02-25T01:33:56.479Z,82
2023-02-25T01:37:21.738Z,81
2023-02-25T01:40:46.995Z,81
2023-02-25T01:44:12.289Z,82
2023-02-25T01:47:37.527Z,81
2023-02-25T01:51:02.791Z,82
2023-02-25T01:54:28.074Z,81
2023-02-25T01:57:53.314Z,81
2023-02-25T02:01:18.557Z,81
2023-02-25T02:04:43.812Z,82
2023-02-25T02:08:09.069Z,84
2023-02-25T02:11:34.324Z,84
2023-02-25T02:14:59.527Z,83
2023-02-25T02:18:24.770Z,83
2023-02-25T02:21:50.016Z,84
2023-02-25T02:25:15.310Z,84
2023-02-25T02:28:40.608Z,83
2023-02-25T02:32:05.914Z,83
2023-02-25T02:35:31.066Z,82
2023-02-25T02:38:56.320Z,83
2023-02-25T02:42:21.581Z,83
2023-02-25T02:45:46.890Z,84
2023-02-25T02:49:12.069Z,83
2023-02-25T02:52:37.320Z,83
2023-02-25T02:56:02.572Z,82
2023-02-25T02:59:27.927Z,82
2023-02-25T03:02:53.106Z,82
2023-02-25T03:06:18.324Z,82
2023-02-25T03:09:43.551Z,82
2023-02-25T03:13:08.812Z,83
2023-02-25T03:16:34.083Z,82
2023-02-25T03:19:59.332Z,82
2023-02-25T03:23:24.541Z,82
2023-02-25T03:26:49.806Z,82
2023-02-25T03:30:15.080Z,82
2023-02-25T03:33:40.269Z,82
2023-02-25T03:37:05.558Z,81
2023-02-25T03:40:30.752Z,82
2023-02-25T03:43:55.997Z,83
2023-02-25T03:47:21.252Z,83
2023-02-25T03:50:46.487Z,83
2023-02-25T03:54:11.748Z,83
2023-02-25T03:57:37.035Z,82
2023-02-25T04:01:02.801Z,83
2023-02-25T04:04:28.090Z,83
2023-02-25T04:07:53.298Z,83
2023-02-25T04:11:18.583Z,83
2023-02-25T04:14:43.797Z,83
2023-02-25T04:18:09.063Z,83
2023-02-25T04:21:34.317Z,82
2023-02-25T04:24:59.581Z,83
2023-02-25T04:28:24.806Z,83
2023-02-25T04:31:50.268Z,83
2023-02-25T04:35:15.271Z,82
2023-02-25T04:38:40.503Z,83
2023-02-25T04:42:05.789Z,83
2023-02-25T04:45:31.048Z,83
2023-02-25T04:48:56.261Z,82
2023-02-25T04:52:21.493Z,83
2023-02-25T04:55:46.745Z,83
2023-02-25T04:59:11.983Z,83
2023-02-25T05:02:37.235Z,83
2023-02-25T05:06:02.482Z,83
2023-02-25T05:09:27.704Z,83
2023-02-25T05:12:52.932Z,84
2023-02-25T05:16:18.237Z,84
2023-02-25T05:19:43.417Z,83
2023-02-25T05:23:08.650Z,83
2023-02-25T05:26:33.868Z,83
2023-02-25T05:29:59.155Z,82
2023-02-25T05:33:24.382Z,82
2023-02-25T05:36:49.633Z,82
2023-02-25T05:40:14.840Z,81
2023-02-25T05:43:40.084Z,81
2023-02-25T05:47:05.342Z,81
2023-02-25T05:50:30.578Z,81
2023-02-25T05:53:55.828Z,80
2023-02-25T05:57:21.039Z,80
2023-02-25T06:00:46.274Z,80
2023-02-25T06:04:11.504Z,80
2023-02-25T06:07:36.774Z,80
2023-02-25T06:11:02.003Z,79
2023-02-25T06:14:27.259Z,79
2023-02-25T06:17:52.481Z,80
2023-02-25T06:21:17.722Z,80
2023-02-25T06:24:42.954Z,80
2023-02-25T06:28:08.204Z,79
2023-02-25T06:31:33.472Z,80
2023-02-25T06:34:58.780Z,81
2023-02-25T06:38:24.163Z,83
2023-02-25T06:41:49.462Z,84
2023-02-25T06:45:14.759Z,85
2023-02-25T06:48:40.029Z,85
2023-02-25T06:52:05.294Z,87
2023-02-25T06:55:30.521Z,88
2023-02-25T06:58:55.803Z,88
2023-02-25T07:02:21.116Z,88
2023-02-25T07:05:46.406Z,86
2023-02-25T07:09:11.683Z,86
2023-02-25T07:12:36.941Z,86
2023-02-25T07:16:02.303Z,86
2023-02-25T07:19:28.346Z,86
2023-02-25T07:22:53.596Z,86
2023-02-25T07:26:18.865Z,85
2023-02-25T07:29:44.205Z,84
2023-02-25T07:33:09.610Z,84
2023-02-25T07:36:35.089Z,84
2023-02-25T07:40:00.318Z,85
2023-02-25T07:43:25.556Z,85
2023-02-25T07:46:50.798Z,86
2023-02-25T07:50:16.047Z,86
2023-02-25T07:53:41.813Z,86
2023-02-25T07:57:08.994Z,86
2023-02-25T08:00:35.065Z,85
2023-02-25T08:04:00.425Z,85
2023-02-25T08:07:26.716Z,84
2023-02-25T08:10:51.344Z,83
2023-02-25T08:14:16.557Z,84
2023-02-25T08:17:41.809Z,83
2023-02-25T08:21:07.068Z,83
2023-02-25T08:24:32.327Z,83
2023-02-25T08:27:57.592Z,83
2023-02-25T08:31:23.391Z,83
2023-02-25T08:34:48.889Z,84
2023-02-25T08:38:13.299Z,83
2023-02-25T08:41:38.550Z,83
2023-02-25T08:45:03.817Z,82
2023-02-25T08:48:29.040Z,82
2023-02-25T08:51:54.300Z,82
2023-02-25T08:55:19.547Z,81
2023-02-25T08:58:44.793Z,81
2023-02-25T09:02:10.032Z,81
2023-02-25T09:05:35.262Z,80
2023-02-25T09:09:00.509Z,79
2023-02-25T09:12:25.743Z,78
2023-02-25T09:15:51.626Z,78
2023-02-25T09:19:17.105Z,80
2023-02-25T09:22:43.212Z,80
2023-02-25T09:26:08.432Z,78
2023-02-25T09:29:33.635Z,79
2023-02-25T09:32:58.953Z,79
2023-02-25T09:36:24.130Z,82
2023-02-25T09:39:49.343Z,83
2023-02-25T09:43:14.557Z,85
2023-02-25T09:46:39.766Z,85
2023-02-25T09:50:04.986Z,85
2023-02-25T09:53:30.250Z,85
2023-02-25T09:56:55.502Z,86
2023-02-25T10:00:20.775Z,86
2023-02-25T10:03:45.938Z,87
2023-02-25T10:07:11.172Z,85
2023-02-25T10:10:36.416Z,85
2023-02-25T10:14:01.604Z,85
2023-02-25T10:17:26.811Z,85
2023-02-25T10:20:52.127Z,86
2023-02-25T10:24:17.339Z,86
2023-02-25T10:27:42.603Z,86
2023-02-25T10:31:08.002Z,85
2023-02-25T10:34:33.159Z,85
2023-02-25T10:37:58.402Z,85
2023-02-25T10:41:23.920Z,84
2023-02-25T10:44:48.923Z,83
2023-02-25T10:48:14.062Z,83
2023-02-25T10:51:39.271Z,83
2023-02-25T10:55:04.462Z,83
2023-02-25T10:58:29.679Z,83
2023-02-25T11:01:54.957Z,83
2023-02-25T11:05:20.096Z,84
2023-02-25T11:08:45.305Z,83
2023-02-25T11:12:10.520Z,83
2023-02-25T11:15:45.061Z,82
2023-02-25T11:19:00.962Z,81
2023-02-25T11:22:26.137Z,81
2023-02-25T11:25:51.343Z,78
2023-02-25T11:29:16.554Z,80
2023-02-25T11:32:41.790Z,78
2023-02-25T11:36:06.986Z,78
2023-02-25T11:39:32.185Z,78
2023-02-25T11:42:57.393Z,78
2023-02-25T11:46:23.051Z,76
2023-02-25T11:49:47.827Z,76
2023-02-25T11:53:13.222Z,78
2023-02-25T11:56:38.318Z,78
2023-02-25T12:00:03.608Z,76
2023-02-25T12:03:28.825Z,76
2023-02-25T12:06:54.037Z,75
2023-02-25T12:10:19.366Z,73
2023-02-25T12:13:44.532Z,74
2023-02-25T12:17:09.698Z,75
2023-02-25T12:20:34.926Z,74
2023-02-25T12:24:00.138Z,74
2023-02-25T12:27:25.353Z,75
2023-02-25T12:30:50.615Z,75
2023-02-25T12:34:15.742Z,73
2023-02-25T12:37:40.988Z,73
2023-02-25T12:41:06.196Z,72
2023-02-25T12:44:31.472Z,73
2023-02-25T12:47:56.665Z,73
2023-02-25T12:51:22.150Z,73
2023-02-25T12:54:47.135Z,72
2023-02-25T12:58:12.341Z,69
2023-02-25T13:01:37.594Z,70
2023-02-25T13:05:02.777Z,69
2023-02-25T13:08:27.979Z,69
2023-02-25T13:12:12.571Z,72
2023-02-25T13:15:18.402Z,70
2023-02-25T13:18:43.619Z,69
2023-02-25T13:22:08.793Z,70
2023-02-25T13:25:33.997Z,70
2023-02-25T13:28:59.191Z,70
2023-02-25T13:32:24.505Z,69
2023-02-25T13:35:49.626Z,71
2023-02-25T13:39:14.810Z,69
2023-02-25T13:42:40.029Z,69
2023-02-25T13:46:05.349Z,69
2023-02-25T13:49:30.511Z,69
2023-02-25T13:52:55.737Z,71
2023-02-25T13:56:20.946Z,70
2023-02-25T13:59:46.158Z,71
2023-02-25T14:03:11.358Z,70
2023-02-25T14:06:36.570Z,73
2023-02-25T14:10:01.775Z,71
2023-02-25T14:13:26.958Z,70
2023-02-25T14:16:53.260Z,69
2023-02-25T14:20:17.414Z,69
2023-02-25T14:23:42.661Z,69
2023-02-25T14:27:07.888Z,70
2023-02-25T14:30:33.142Z,70
2023-02-25T15:05:42.928Z,79
2023-02-25T15:09:08.474Z,79
2023-02-25T15:12:33.702Z,79
2023-02-25T15:15:58.992Z,77
2023-02-25T15:19:24.157Z,77
2023-02-25T15:22:49.418Z,77
2023-02-25T15:26:14.614Z,77
2023-02-25T15:29:39.835Z,78
2023-02-25T15:33:05.066Z,77
2023-02-25T15:36:30.267Z,77
2023-02-25T15:39:56.621Z,77
2023-02-25T15:43:20.704Z,76
2023-02-25T15:46:46.012Z,77
2023-02-25T15:50:11.145Z,76
2023-02-25T15:53:36.381Z,76
2023-02-25T15:57:01.625Z,77
2023-02-25T16:00:26.866Z,78
2023-02-25T16:03:52.074Z,78
2023-02-25T16:07:17.362Z,79
2023-02-25T16:10:42.607Z,81
2023-02-25T16:14:07.852Z,82
2023-02-25T16:17:33.044Z,81
2023-02-25T16:20:58.252Z,81
2023-02-25T16:24:23.483Z,80
2023-02-25T16:27:48.714Z,80
2023-02-25T16:31:14.035Z,79
2023-02-25T16:34:39.147Z,79
2023-02-25T16:38:04.406Z,80
2023-02-25T16:41:37.498Z,80
2023-02-25T16:44:54.822Z,80
2023-02-25T16:48:20.083Z,80
2023-02-25T16:51:45.294Z,81
2023-02-25T16:55:12.485Z,80
2023-02-25T16:58:35.695Z,81
2023-02-25T17:02:00.950Z,80
2023-02-25T17:05:26.178Z,80
2023-02-25T17:08:51.361Z,79
2023-02-25T17:12:16.594Z,79
2023-02-25T17:15:41.928Z,80
2023-02-25T17:19:07.192Z,80
2023-02-25T17:22:32.446Z,80
2023-02-25T17:25:57.668Z,81
2023-02-25T17:29:22.949Z,81
2023-02-25T17:32:48.308Z,81
2023-02-25T17:36:13.834Z,80
2023-02-25T17:39:39.146Z,80
2023-02-25T17:43:04.423Z,81
2023-02-25T17:46:29.719Z,81
2023-02-25T17:49:54.935Z,81
2023-02-25T17:53:20.296Z,81
2023-02-25T17:56:45.621Z,81
2023-02-25T18:00:10.906Z,81
2023-02-25T18:03:36.237Z,81
2023-02-25T18:07:01.514Z,81
2023-02-25T18:10:26.802Z,81
2023-02-25T18:13:52.973Z,80
2023-02-25T18:17:18.211Z,80
2023-02-25T18:20:43.531Z,80
2023-02-25T18:24:08.788Z,79
2023-02-25T18:27:34.054Z,79
2023-02-25T18:30:59.422Z,78
2023-02-25T18:34:24.574Z,78
2023-02-25T18:37:49.875Z,79
2023-02-25T18:41:15.151Z,78
2023-02-25T18:44:40.429Z,77
2023-02-25T18:48:05.785Z,78
2023-02-25T18:51:31.012Z,76
2023-02-25T18:54:56.303Z,77
2023-02-25T18:58:21.568Z,77
2023-02-25T19:01:46.980Z,77
2023-02-25T19:05:12.154Z,76
2023-02-25T19:08:37.428Z,75
2023-02-25T19:12:02.735Z,76
2023-02-25T19:15:27.957Z,77
2023-02-25T19:18:53.269Z,77
2023-02-25T19:22:18.544Z,78
2023-02-25T19:25:43.820Z,78
2023-02-25T19:29:09.077Z,78
2023-02-25T19:32:34.399Z,77
2023-02-25T19:35:59.642Z,77
2023-02-25T19:39:24.963Z,76
2023-02-25T19:42:50.225Z,76
2023-02-25T19:46:15.586Z,75
2023-02-25T19:49:40.830Z,76
2023-02-25T19:53:06.117Z,78
2023-02-25T19:56:31.408Z,76
2023-02-25T19:59:56.686Z,75
2023-02-25T20:03:21.994Z,76
2023-02-25T20:06:47.319Z,76
2023-02-25T20:10:12.601Z,76
2023-02-25T20:13:37.925Z,76
2023-02-25T20:17:03.169Z,77
2023-02-25T20:20:28.427Z,76
2023-02-25T20:23:53.696Z,77
2023-02-25T20:27:18.956Z,77
2023-02-25T20:30:44.330Z,77
2023-02-25T20:34:09.497Z,78
2023-02-25T20:37:34.767Z,78
2023-02-25T20:41:00.855Z,77
2023-02-25T20:44:26.111Z,77
2023-02-25T20:47:51.427Z,77
2023-02-25T20:51:16.676Z,77
2023-02-25T20:54:41.938Z,77
2023-02-25T20:58:07.247Z,76
2023-02-25T21:01:32.500Z,76
2023-02-25T21:04:57.863Z,76
2023-02-25T21:08:23.118Z,75
2023-02-25T21:11:48.405Z,75
2023-02-25T21:15:13.701Z,75
2023-02-25T21:18:38.958Z,76
2023-02-25T21:22:04.293Z,74
2023-02-25T21:25:29.549Z,74
2023-02-25T21:28:54.834Z,74
2023-02-25T21:32:20.138Z,74
2023-02-25T21:35:45.423Z,72
2023-02-25T21:39:10.735Z,72
2023-02-25T21:42:36.020Z,73
2023-02-25T21:46:01.322Z,73
2023-02-25T21:49:26.560Z,73
2023-02-25T21:52:51.841Z,73
2023-02-25T21:56:17.169Z,74
2023-02-25T21:59:42.423Z,74
2023-02-25T22:03:07.727Z,74
2023-02-25T22:06:32.995Z,74
2023-02-25T22:09:58.287Z,73
2023-02-25T22:13:23.575Z,73
2023-02-25T22:16:48.861Z,73
2023-02-25T22:20:14.154Z,73
2023-02-25T22:23:39.420Z,72
2023-02-25T22:27:04.747Z,72
2023-02-25T22:30:30.022Z,72
2023-02-25T22:33:55.275Z,72
2023-02-25T22:37:20.512Z,73
2023-02-25T22:40:45.813Z,73
2023-02-25T22:44:11.105Z,73
2023-02-25T22:47:36.413Z,73
2023-02-25T22:51:01.658Z,73
2023-02-25T22:54:26.894Z,72
2023-02-25T22:57:52.175Z,72
2023-02-25T23:01:17.439Z,73
2023-02-25T23:04:42.778Z,74
2023-02-25T23:08:08.035Z,75
2023-02-25T23:11:33.317Z,73
2023-02-25T23:14:58.568Z,73
2023-02-25T23:18:23.841Z,73
2023-02-25T23:21:49.141Z,73
2023-02-25T23:25:14.370Z,74
2023-02-25T23:28:39.655Z,74
2023-02-25T23:32:05.068Z,74
2023-02-25T23:35:30.234Z,74
2023-02-25T23:38:55.542Z,74
2023-02-25T23:42:20.758Z,73
2023-02-25T23:45:46.773Z,73
2023-02-25T23:49:11.285Z,74
2023-02-25T23:52:36.569Z,73
2023-02-25T23:56:01.887Z,73
2023-02-25T23:59:27.148Z,73
